Terminal Aerodrome Forecast
Issued by NWS

Home | Current Version | Previous Version | Text Only | Print | Product List | Glossary On
Versions: 1 2 3 4 5 6 7 8 9 10 11 12 13 14 15
000
FTUS46 KLOX 250500
TAFWJF
TAF
KWJF 250522Z 2506/2606 27015G20KT P6SM SCT200
     FM250900 25012KT P6SM SCT200
     FM251600 26018G28KT P6SM BKN200
     FM252200 24025G35KT P6SM BKN200
     FM260500 24018G28KT P6SM BKN100=

USA.gov is the U.S. government's official web portal to all federal, state and local government web resources and services.